createdAt,value
2017-03-13T00:00:56.513Z,20.5
2017-03-13T00:02:06.390Z,20.54
2017-03-13T00:03:17.058Z,20.43
2017-03-13T00:04:26.712Z,20.5
2017-03-13T00:05:36.243Z,20.48
2017-03-13T00:06:46.503Z,20.42
2017-03-13T00:07:57.191Z,20.42
2017-03-13T00:09:07.101Z,20.48
2017-03-13T00:10:17.560Z,20.55
2017-03-13T00:11:27.465Z,20.55
2017-03-13T00:12:37.376Z,20.43
2017-03-13T00:13:48.060Z,20.5
2017-03-13T00:14:58.748Z,20.48
2017-03-13T00:16:09.176Z,20.43
2017-03-13T00:17:19.482Z,20.55
2017-03-13T00:18:29.784Z,20.52
2017-03-13T00:19:39.657Z,20.52
2017-03-13T00:20:49.937Z,20.54
2017-03-13T00:22:00.386Z,20.47
2017-03-13T00:23:10.268Z,20.41
2017-03-13T00:24:20.552Z,20.55
2017-03-13T00:25:31.241Z,20.48
2017-03-13T00:26:41.571Z,20.52
2017-03-13T00:27:51.641Z,20.48
2017-03-13T00:29:02.348Z,20.48
2017-03-13T00:30:12.250Z,20.48
2017-03-13T00:31:22.158Z,20.43
2017-03-13T00:32:32.884Z,20.52
2017-03-13T00:33:43.721Z,20.48
2017-03-13T00:34:53.993Z,20.54
2017-03-13T00:36:04.659Z,20.43
2017-03-13T00:37:14.587Z,20.42
2017-03-13T00:38:25.264Z,20.42
2017-03-13T00:39:35.320Z,20.41
2017-03-13T00:40:45.200Z,20.5
2017-03-13T00:41:54.327Z,20.55
2017-03-13T00:43:03.835Z,20.48
2017-03-13T00:44:14.533Z,20.48
2017-03-13T00:45:25.032Z,20.48
2017-03-13T00:46:34.913Z,20.43
2017-03-13T00:47:45.209Z,20.42
2017-03-13T00:48:55.473Z,20.5
2017-03-13T00:50:06.162Z,20.41
2017-03-13T00:51:16.610Z,20.42
2017-03-13T00:52:27.309Z,20.47
2017-03-13T00:53:37.972Z,20.43
2017-03-13T00:54:48.673Z,20.52
2017-03-13T00:55:58.963Z,20.48
2017-03-13T00:57:09.375Z,20.43
2017-03-13T00:58:19.333Z,20.47
2017-03-13T00:59:29.661Z,20.42
2017-03-13T01:00:39.574Z,20.42
2017-03-13T01:01:49.853Z,20.47
2017-03-13T01:03:00.258Z,20.48
2017-03-13T01:04:10.813Z,20.48
2017-03-13T01:05:19.930Z,20.48
2017-03-13T01:06:30.586Z,20.47
2017-03-13T01:07:40.866Z,20.5
2017-03-13T01:08:50.858Z,20.48
2017-03-13T01:10:00.774Z,20.5
2017-03-13T01:11:10.670Z,20.47
2017-03-13T01:12:21.374Z,20.52
2017-03-13T01:13:31.272Z,20.48
2017-03-13T01:14:41.666Z,20.5
2017-03-13T01:15:51.951Z,20.5
2017-03-13T01:17:02.235Z,20.43
2017-03-13T01:18:12.519Z,20.42
2017-03-13T01:19:22.799Z,20.51
2017-03-13T01:20:33.171Z,20.48
2017-03-13T01:21:44.148Z,20.51
2017-03-13T01:22:54.440Z,20.39
2017-03-13T01:24:05.171Z,20.51
2017-03-13T01:25:15.451Z,20.47
2017-03-13T01:26:25.973Z,20.55
2017-03-13T01:27:35.485Z,20.41
2017-03-13T01:28:44.986Z,20.42
2017-03-13T01:29:55.286Z,20.5
2017-03-13T01:31:05.599Z,20.47
2017-03-13T01:32:16.040Z,20.39
2017-03-13T01:33:26.330Z,20.41
2017-03-13T01:34:36.211Z,20.52
2017-03-13T01:35:46.506Z,20.39
2017-03-13T01:36:56.802Z,20.43
2017-03-13T01:38:07.220Z,20.43
2017-03-13T01:39:17.519Z,20.42
2017-03-13T01:40:28.187Z,20.42
2017-03-13T01:41:37.704Z,20.52
2017-03-13T01:42:47.594Z,20.42
2017-03-13T01:43:58.415Z,20.41
2017-03-13T01:45:09.078Z,20.38
2017-03-13T01:46:19.416Z,20.48
2017-03-13T01:47:29.722Z,20.39
2017-03-13T01:48:39.616Z,20.43
2017-03-13T01:49:49.683Z,20.55
2017-03-13T01:51:00.384Z,20.5
2017-03-13T01:52:11.097Z,20.5
2017-03-13T01:53:21.425Z,20.42
2017-03-13T01:54:32.086Z,20.42
2017-03-13T01:55:42.338Z,20.52
2017-03-13T01:56:53.038Z,20.47
2017-03-13T01:58:03.328Z,20.43
2017-03-13T01:59:13.624Z,20.41
2017-03-13T02:00:24.305Z,20.43
2017-03-13T02:01:35.409Z,20.39
2017-03-13T02:02:46.065Z,20.41
2017-03-13T02:03:55.951Z,20.42
2017-03-13T02:05:06.621Z,20.48
2017-03-13T02:06:16.910Z,20.43
2017-03-13T02:07:27.357Z,20.51
2017-03-13T02:08:37.644Z,20.43
2017-03-13T02:09:47.918Z,20.43
2017-03-13T02:10:58.201Z,20.39
2017-03-13T02:12:08.475Z,20.42
2017-03-13T02:13:19.041Z,20.39
2017-03-13T02:14:29.724Z,20.41
2017-03-13T02:15:39.636Z,20.36
2017-03-13T02:16:49.530Z,20.36
2017-03-13T02:17:59.815Z,20.36
2017-03-13T02:19:10.640Z,20.36
2017-03-13T02:20:21.313Z,20.41
2017-03-13T02:21:31.976Z,20.42
2017-03-13T02:22:41.860Z,20.41
2017-03-13T02:23:52.151Z,20.47
2017-03-13T02:25:02.580Z,20.31
2017-03-13T02:26:12.866Z,20.39
2017-03-13T02:27:23.137Z,20.35
2017-03-13T02:28:33.424Z,20.35
2017-03-13T02:32:15.833Z,20.32
2017-03-13T02:33:26.091Z,20.33
2017-03-13T02:34:36.382Z,20.41
2017-03-13T02:35:46.296Z,20.32
2017-03-13T02:36:56.583Z,20.35
2017-03-13T02:38:07.388Z,20.32
2017-03-13T02:39:18.067Z,20.36
2017-03-13T02:40:27.986Z,20.29
2017-03-13T02:41:38.316Z,20.36
2017-03-13T02:42:48.203Z,20.38
2017-03-13T02:43:57.852Z,20.35
2017-03-13T02:45:08.507Z,20.41
2017-03-13T02:46:19.157Z,20.33
2017-03-13T02:47:29.432Z,20.39
2017-03-13T02:48:39.335Z,20.39
2017-03-13T02:49:49.775Z,20.38
2017-03-13T02:51:00.478Z,20.41
2017-03-13T02:52:09.973Z,20.35
2017-03-13T02:53:20.244Z,20.36
2017-03-13T02:54:30.168Z,20.39
2017-03-13T02:55:41.011Z,20.42
2017-03-13T02:56:51.674Z,20.29
2017-03-13T02:58:02.325Z,20.33
2017-03-13T02:59:12.979Z,20.29
2017-03-13T03:00:23.322Z,20.29
2017-03-13T03:01:33.337Z,20.33
2017-03-13T03:02:43.225Z,20.32
2017-03-13T03:03:53.911Z,20.28
2017-03-13T03:05:04.610Z,20.32
2017-03-13T03:06:14.889Z,20.38
2017-03-13T03:07:25.265Z,20.38
2017-03-13T03:08:35.559Z,20.31
2017-03-13T03:09:45.468Z,20.38
2017-03-13T03:10:55.349Z,20.43
2017-03-13T03:12:05.636Z,20.36
2017-03-13T03:13:16.027Z,20.32
2017-03-13T03:14:26.297Z,20.26
2017-03-13T03:15:36.210Z,20.26
2017-03-13T03:16:46.486Z,20.28
2017-03-13T03:17:57.172Z,20.33
2017-03-13T03:19:07.559Z,20.31
2017-03-13T03:20:17.840Z,20.31
2017-03-13T03:21:28.124Z,20.26
2017-03-13T03:22:38.399Z,20.36
2017-03-13T03:23:48.273Z,20.29
2017-03-13T03:24:58.667Z,20.29
2017-03-13T03:26:08.981Z,20.24
2017-03-13T03:27:19.297Z,20.32
2017-03-13T03:28:29.570Z,20.24
2017-03-13T03:29:39.853Z,20.29
2017-03-13T03:30:49.922Z,20.28
2017-03-13T03:32:00.606Z,20.31
2017-03-13T03:33:11.271Z,20.28
2017-03-13T03:34:21.974Z,20.29
2017-03-13T03:35:31.483Z,20.31
2017-03-13T03:36:41.540Z,20.31
2017-03-13T03:37:51.450Z,20.29
2017-03-13T03:39:02.146Z,20.32
2017-03-13T03:40:12.419Z,20.24
2017-03-13T03:41:22.686Z,20.38
2017-03-13T03:42:33.494Z,20.29
2017-03-13T03:43:43.790Z,20.31
2017-03-13T03:44:53.691Z,20.28
2017-03-13T03:46:04.363Z,20.31
2017-03-13T03:47:13.877Z,20.33
2017-03-13T03:48:24.712Z,20.33
2017-03-13T03:49:34.604Z,20.33
2017-03-13T03:50:44.478Z,20.28
2017-03-13T03:51:54.357Z,20.29
2017-03-13T03:53:03.906Z,20.29
2017-03-13T03:54:14.359Z,20.2
2017-03-13T03:55:24.248Z,20.21
2017-03-13T03:56:34.516Z,20.33
2017-03-13T03:57:44.840Z,20.29
2017-03-13T03:58:55.507Z,20.26
2017-03-13T04:00:06.344Z,20.31
2017-03-13T04:01:17.009Z,20.24
2017-03-13T04:02:27.305Z,20.31
2017-03-13T04:03:37.623Z,20.29
2017-03-13T04:04:47.489Z,20.29
2017-03-13T04:05:58.294Z,20.31
2017-03-13T04:07:07.797Z,20.29
2017-03-13T04:08:17.704Z,20.29
2017-03-13T04:09:28.370Z,20.21
2017-03-13T04:10:39.058Z,20.24
2017-03-13T04:11:49.485Z,20.28
2017-03-13T04:12:59.386Z,20.14
2017-03-13T04:14:09.260Z,20.26
2017-03-13T04:15:19.531Z,20.28
2017-03-13T04:16:29.425Z,20.33
2017-03-13T04:17:40.277Z,20.26
2017-03-13T04:18:50.177Z,20.26
2017-03-13T04:20:00.446Z,20.2
2017-03-13T04:21:11.121Z,20.26
2017-03-13T04:22:21.777Z,20.23
2017-03-13T04:23:32.235Z,20.17
2017-03-13T04:24:42.916Z,20.29
2017-03-13T04:25:53.591Z,20.17
2017-03-13T04:27:03.884Z,20.17
2017-03-13T04:28:14.153Z,20.24
2017-03-13T04:29:23.989Z,20.24
2017-03-13T04:30:34.255Z,20.18
2017-03-13T04:31:44.543Z,20.14
2017-03-13T04:32:54.823Z,20.14
2017-03-13T04:34:05.494Z,20.16
2017-03-13T04:35:16.321Z,20.18
2017-03-13T04:36:26.979Z,20.18
2017-03-13T04:37:37.250Z,20.2
2017-03-13T04:38:47.957Z,20.2
2017-03-13T04:39:58.665Z,20.21
2017-03-13T04:41:08.737Z,20.23
2017-03-13T04:42:19.051Z,20.2
2017-03-13T04:43:28.964Z,20.21
2017-03-13T04:44:38.476Z,20.16
2017-03-13T04:45:49.168Z,20.2
2017-03-13T04:46:59.213Z,20.17
2017-03-13T04:48:09.880Z,20.17
2017-03-13T04:49:19.778Z,20.23
2017-03-13T04:50:29.675Z,20.2
2017-03-13T04:51:39.959Z,20.24
2017-03-13T04:52:50.761Z,20.24
2017-03-13T04:54:01.426Z,20.18
2017-03-13T04:55:11.721Z,20.16
2017-03-13T04:56:22.002Z,20.2
2017-03-13T04:57:32.295Z,20.18
2017-03-13T04:58:42.707Z,20.17
2017-03-13T04:59:52.994Z,20.24
2017-03-13T05:01:02.903Z,20.18
2017-03-13T05:02:12.830Z,20.17
2017-03-13T05:03:23.516Z,20.2
2017-03-13T05:04:34.161Z,20.17
2017-03-13T05:05:44.033Z,20.16
2017-03-13T05:06:54.327Z,20.23
2017-03-13T05:08:04.605Z,20.16
2017-03-13T05:09:14.902Z,20.21
2017-03-13T05:10:25.314Z,20.28
2017-03-13T05:11:35.225Z,20.18
2017-03-13T05:12:45.524Z,20.23
2017-03-13T05:13:55.809Z,20.21
2017-03-13T05:15:05.735Z,20.17
2017-03-13T05:16:15.767Z,20.16
2017-03-13T05:17:26.462Z,20.21
2017-03-13T05:18:37.148Z,20.24
2017-03-13T05:19:47.842Z,20.2
2017-03-13T05:20:58.528Z,20.21
2017-03-13T05:22:08.578Z,20.21
2017-03-13T05:23:18.863Z,20.24
2017-03-13T05:24:29.201Z,20.24
2017-03-13T05:25:39.867Z,20.2
2017-03-13T05:26:50.546Z,20.16
2017-03-13T05:28:00.962Z,20.18
2017-03-13T05:29:11.674Z,20.2
2017-03-13T05:30:21.979Z,20.21
2017-03-13T05:31:32.667Z,20.21
2017-03-13T05:32:42.964Z,20.2
2017-03-13T05:33:53.074Z,20.1
2017-03-13T05:35:03.752Z,20.13
2017-03-13T05:36:14.580Z,20.2
2017-03-13T05:37:25.049Z,20.21
2017-03-13T05:38:35.348Z,20.17
2017-03-13T05:39:45.470Z,20.21
2017-03-13T05:40:55.768Z,20.23
2017-03-13T05:42:06.092Z,20.14
2017-03-13T05:43:15.987Z,20.18
2017-03-13T05:44:27.000Z,20.16
2017-03-13T05:45:37.926Z,20.26
2017-03-13T05:46:47.463Z,20.23
2017-03-13T05:47:56.614Z,20.18
2017-03-13T05:49:07.327Z,20.2
2017-03-13T05:50:17.616Z,20.08
2017-03-13T05:51:28.075Z,20.21
2017-03-13T05:52:38.746Z,20.2
2017-03-13T05:53:48.708Z,20.26
2017-03-13T05:54:58.635Z,20.18
2017-03-13T05:56:08.575Z,20.21
2017-03-13T05:57:18.670Z,20.29
2017-03-13T05:58:29.353Z,20.32
2017-03-13T05:59:39.243Z,20.38
2017-03-13T06:00:49.569Z,20.38
2017-03-13T06:01:59.504Z,20.51
2017-03-13T06:03:09.946Z,20.51
2017-03-13T06:04:20.243Z,20.51
2017-03-13T06:05:30.540Z,20.64
2017-03-13T06:06:41.220Z,20.62
2017-03-13T06:07:51.139Z,20.64
2017-03-13T06:09:01.961Z,20.76
2017-03-13T06:10:11.932Z,20.85
2017-03-13T06:11:22.610Z,20.88
2017-03-13T06:12:33.293Z,20.92
2017-03-13T06:13:43.593Z,20.95
2017-03-13T06:14:54.464Z,21.04
2017-03-13T06:16:04.809Z,21.04
2017-03-13T06:17:15.131Z,21.12
2017-03-13T06:18:25.457Z,21.17
2017-03-13T06:19:36.119Z,21.21
2017-03-13T06:20:46.726Z,21.25
2017-03-13T06:21:56.266Z,21.37
2017-03-13T06:23:06.970Z,21.4
2017-03-13T06:24:17.653Z,21.4
2017-03-13T06:25:28.417Z,21.46
2017-03-13T06:26:39.033Z,21.53
2017-03-13T06:27:49.737Z,21.61
2017-03-13T06:29:00.430Z,21.61
2017-03-13T06:30:11.141Z,21.68
2017-03-13T06:31:21.437Z,21.71
2017-03-13T06:32:32.010Z,21.71
2017-03-13T06:33:42.690Z,21.8
2017-03-13T06:34:52.983Z,21.9
2017-03-13T06:36:03.667Z,21.9
2017-03-13T06:37:13.939Z,21.91
2017-03-13T06:38:24.758Z,21.9
2017-03-13T06:39:34.663Z,21.92
2017-03-13T06:40:44.549Z,22.02
2017-03-13T06:41:54.047Z,21.98
2017-03-13T06:43:04.708Z,22.07
2017-03-13T06:44:15.551Z,22.12
2017-03-13T06:45:25.840Z,22.15
2017-03-13T06:46:36.530Z,22.22
2017-03-13T06:47:46.826Z,22.25
2017-03-13T06:48:56.758Z,22.3
2017-03-13T06:50:06.792Z,22.24
2017-03-13T06:51:17.461Z,22.35
2017-03-13T06:52:27.376Z,22.42
2017-03-13T06:53:38.060Z,22.37
2017-03-13T06:54:48.339Z,22.39
2017-03-13T06:55:58.791Z,22.46
2017-03-13T06:57:09.471Z,22.62
2017-03-13T06:58:20.163Z,22.54
2017-03-13T06:59:29.762Z,22.51
2017-03-13T07:00:40.059Z,22.57
2017-03-13T07:01:50.865Z,22.68
2017-03-13T07:03:01.541Z,22.55
2017-03-13T07:04:11.825Z,22.72
2017-03-13T07:05:22.492Z,22.61
2017-03-13T07:06:32.765Z,22.73
2017-03-13T07:07:43.292Z,22.76
2017-03-13T07:08:53.186Z,22.77
2017-03-13T07:10:03.487Z,22.88
2017-03-13T07:11:14.145Z,22.92
2017-03-13T07:12:24.842Z,22.95
2017-03-13T07:13:35.222Z,22.91
2017-03-13T07:14:44.744Z,22.92
2017-03-13T07:15:54.245Z,22.97
2017-03-13T07:17:04.935Z,23.05
2017-03-13T07:18:15.596Z,23.02
2017-03-13T07:19:26.363Z,23.1
2017-03-13T07:20:36.633Z,23.16
2017-03-13T07:21:47.302Z,23.13
2017-03-13T07:22:57.195Z,23.22
2017-03-13T07:24:07.503Z,23.13
2017-03-13T07:25:17.897Z,23.16
2017-03-13T07:26:28.178Z,23.23
2017-03-13T07:27:37.313Z,23.38
2017-03-13T07:28:47.615Z,23.33
2017-03-13T07:29:58.509Z,23.36
2017-03-13T07:31:09.309Z,23.39
2017-03-13T07:32:19.184Z,23.35
2017-03-13T07:33:29.465Z,23.38
2017-03-13T07:34:40.426Z,23.35
2017-03-13T07:35:50.692Z,23.38
2017-03-13T07:37:00.677Z,23.39
2017-03-13T07:38:11.364Z,23.36
2017-03-13T07:39:22.056Z,23.33
2017-03-13T07:40:32.335Z,23.39
2017-03-13T07:41:43.033Z,23.39
2017-03-13T07:42:53.847Z,23.31
2017-03-13T07:44:04.149Z,23.42
2017-03-13T07:45:13.671Z,23.32
2017-03-13T07:46:23.989Z,23.36
2017-03-13T07:47:34.684Z,23.39
2017-03-13T07:48:44.767Z,23.4
2017-03-13T07:49:55.436Z,23.35
2017-03-13T07:51:05.326Z,23.39
2017-03-13T07:52:15.618Z,23.4
2017-03-13T07:53:25.922Z,23.4
2017-03-13T07:54:36.362Z,23.36
2017-03-13T07:55:47.319Z,23.39
2017-03-13T07:56:56.846Z,23.47
2017-03-13T07:58:07.524Z,23.39
2017-03-13T07:59:17.425Z,23.43
2017-03-13T08:00:28.277Z,23.42
2017-03-13T08:01:38.590Z,23.47
2017-03-13T08:02:48.507Z,23.38
2017-03-13T08:03:59.215Z,23.43
2017-03-13T08:05:09.520Z,23.43
2017-03-13T08:06:20.367Z,23.39
2017-03-13T08:07:30.666Z,23.36
2017-03-13T08:08:40.162Z,23.36
2017-03-13T08:09:50.038Z,23.38
2017-03-13T08:11:00.703Z,23.36
2017-03-13T08:12:11.534Z,23.4
2017-03-13T08:13:22.192Z,23.27
2017-03-13T08:14:32.482Z,23.25
2017-03-13T08:15:42.754Z,23.25
2017-03-13T08:16:52.637Z,23.22
2017-03-13T08:18:03.089Z,23.2
2017-03-13T08:19:12.983Z,23.19
2017-03-13T08:20:22.855Z,23.22
2017-03-13T08:21:32.748Z,23.1
2017-03-13T08:22:43.033Z,23.2
2017-03-13T08:23:53.534Z,23.17
2017-03-13T08:25:04.219Z,23.17
2017-03-13T08:26:14.495Z,23.04
2017-03-13T08:27:24.410Z,23.07
2017-03-13T08:28:34.287Z,23.13
2017-03-13T08:29:44.752Z,23.05
2017-03-13T08:30:54.640Z,23.07
2017-03-13T08:32:05.320Z,23.05
2017-03-13T08:33:15.259Z,23.02
2017-03-13T08:34:25.582Z,23.01
2017-03-13T08:35:35.642Z,22.95
2017-03-13T08:36:46.309Z,22.98
2017-03-13T08:37:56.600Z,22.91
2017-03-13T08:39:06.116Z,22.92
2017-03-13T08:40:16.443Z,22.88
2017-03-13T08:41:26.884Z,22.94
2017-03-13T08:42:37.175Z,22.91
2017-03-13T08:43:47.451Z,22.85
2017-03-13T08:44:57.330Z,22.91
2017-03-13T08:46:07.631Z,22.88
2017-03-13T08:47:18.434Z,22.79
2017-03-13T08:48:28.312Z,22.77
2017-03-13T08:49:38.225Z,22.82
2017-03-13T08:50:48.106Z,22.76
2017-03-13T08:51:58.396Z,22.76
2017-03-13T08:53:08.521Z,22.68
2017-03-13T08:54:18.794Z,22.7
2017-03-13T08:55:29.096Z,22.72
2017-03-13T08:56:39.375Z,22.72
2017-03-13T08:57:49.673Z,22.7
2017-03-13T08:59:00.495Z,22.73
2017-03-13T09:00:11.181Z,22.6
2017-03-13T09:01:21.860Z,22.6
2017-03-13T09:02:32.147Z,22.58
2017-03-13T09:03:42.445Z,22.61
2017-03-13T09:04:52.485Z,22.62
2017-03-13T09:06:02.776Z,22.61
2017-03-13T09:07:13.071Z,22.57
2017-03-13T09:08:22.961Z,22.61
2017-03-13T09:09:33.270Z,22.58
2017-03-13T09:10:43.710Z,22.49
2017-03-13T09:11:52.843Z,22.47
2017-03-13T09:13:02.727Z,22.46
2017-03-13T09:14:13.009Z,22.45
2017-03-13T09:15:22.919Z,22.46
2017-03-13T09:16:32.962Z,22.51
2017-03-13T09:17:42.867Z,22.4
2017-03-13T09:18:53.524Z,22.46
2017-03-13T09:20:04.186Z,22.39
2017-03-13T09:21:14.087Z,22.37
2017-03-13T09:22:23.749Z,22.31
2017-03-13T09:23:33.658Z,22.33
2017-03-13T09:24:44.331Z,22.28
2017-03-13T09:25:54.241Z,22.25
2017-03-13T09:27:04.935Z,22.3
2017-03-13T09:28:15.392Z,22.22
2017-03-13T09:29:26.088Z,22.25
2017-03-13T09:30:36.782Z,22.24
2017-03-13T09:31:47.129Z,22.18
2017-03-13T09:32:57.427Z,22.17
2017-03-13T09:34:07.957Z,22.22
2017-03-13T09:35:18.219Z,22.21
2017-03-13T09:36:28.104Z,22.18
2017-03-13T09:37:38.793Z,22.21
2017-03-13T09:38:49.079Z,22.17
2017-03-13T09:39:59.922Z,22.06
2017-03-13T09:41:09.835Z,22.03
2017-03-13T09:42:20.512Z,22.1
2017-03-13T09:43:31.177Z,22.07
2017-03-13T09:44:41.459Z,22.06
2017-03-13T09:45:51.889Z,22.07
2017-03-13T09:47:02.565Z,22.12
2017-03-13T09:48:12.444Z,21.99
2017-03-13T09:49:22.399Z,21.96
2017-03-13T09:50:32.681Z,22.05
2017-03-13T09:51:42.725Z,21.98
2017-03-13T09:52:53.407Z,21.98
2017-03-13T09:54:03.713Z,21.94
2017-03-13T09:55:13.987Z,21.99
2017-03-13T09:56:24.649Z,22.02
2017-03-13T09:57:34.711Z,21.88
2017-03-13T09:58:45.013Z,21.99
2017-03-13T09:59:55.326Z,21.96
2017-03-13T10:01:05.997Z,21.92
2017-03-13T10:02:15.899Z,21.94
2017-03-13T10:03:26.727Z,21.92
2017-03-13T10:04:36.999Z,21.99
2017-03-13T10:05:47.281Z,22
2017-03-13T10:06:57.556Z,21.99
2017-03-13T10:08:07.074Z,21.88
2017-03-13T10:09:17.917Z,21.98
2017-03-13T10:10:27.835Z,21.98
2017-03-13T10:11:38.131Z,21.9
2017-03-13T10:12:48.417Z,21.91
2017-03-13T10:13:59.137Z,21.92
2017-03-13T10:15:09.188Z,21.92
2017-03-13T10:16:19.476Z,21.86
2017-03-13T10:17:29.784Z,21.9
2017-03-13T10:18:40.087Z,21.9
2017-03-13T10:19:50.391Z,21.94
2017-03-13T10:21:00.821Z,21.92
2017-03-13T10:22:11.099Z,21.99
2017-03-13T10:23:21.391Z,21.86
2017-03-13T10:24:30.536Z,21.98
2017-03-13T10:25:40.437Z,21.96
2017-03-13T10:26:51.249Z,21.99
2017-03-13T10:28:01.535Z,21.88
2017-03-13T10:29:11.831Z,21.94
2017-03-13T10:30:22.511Z,21.96
2017-03-13T10:31:32.007Z,21.96
2017-03-13T10:32:42.858Z,21.9
2017-03-13T10:33:53.535Z,22
2017-03-13T10:35:04.212Z,21.99
2017-03-13T10:36:14.110Z,22
2017-03-13T10:37:24.400Z,22
2017-03-13T10:38:34.850Z,21.94
2017-03-13T10:39:45.557Z,22.02
2017-03-13T10:40:55.833Z,22
2017-03-13T10:42:06.146Z,21.94
2017-03-13T10:43:16.464Z,22
2017-03-13T10:44:26.912Z,22.02
2017-03-13T10:45:37.582Z,21.88
2017-03-13T10:46:47.485Z,22
2017-03-13T10:47:57.769Z,21.92
2017-03-13T10:49:08.432Z,21.94
2017-03-13T10:50:19.242Z,22.02
2017-03-13T10:51:28.786Z,21.92
2017-03-13T10:52:39.100Z,21.94
2017-03-13T10:53:49.781Z,21.83
2017-03-13T10:55:00.466Z,21.98
2017-03-13T10:56:10.920Z,22.02
2017-03-13T10:57:21.603Z,21.96
2017-03-13T10:58:32.298Z,21.98
2017-03-13T10:59:42.603Z,21.99
2017-03-13T11:00:52.896Z,21.94
2017-03-13T11:02:02.572Z,21.99
2017-03-13T11:03:12.870Z,21.98
2017-03-13T11:04:23.555Z,21.99
2017-03-13T11:05:34.242Z,21.83
2017-03-13T11:06:44.159Z,21.99
2017-03-13T11:07:55.010Z,22
2017-03-13T11:09:05.293Z,21.9
2017-03-13T11:10:15.600Z,21.94
2017-03-13T11:11:25.517Z,21.94
2017-03-13T11:12:36.195Z,21.92
2017-03-13T11:13:46.999Z,21.94
2017-03-13T11:14:57.263Z,21.99
2017-03-13T11:16:07.146Z,22
2017-03-13T11:17:17.815Z,21.98
2017-03-13T11:18:27.696Z,21.88
2017-03-13T11:19:37.731Z,21.94
2017-03-13T11:20:48.413Z,21.99
2017-03-13T11:21:59.117Z,21.9
2017-03-13T11:23:09.405Z,21.98
2017-03-13T11:24:19.346Z,21.98
2017-03-13T11:25:30.184Z,22
2017-03-13T11:26:40.844Z,21.9
2017-03-13T11:27:51.679Z,21.86
2017-03-13T11:29:02.430Z,21.9
2017-03-13T11:30:12.719Z,21.9
2017-03-13T11:31:23.260Z,21.96
2017-03-13T11:32:33.552Z,21.91
2017-03-13T11:33:43.851Z,21.84
2017-03-13T11:34:54.517Z,21.92
2017-03-13T11:36:05.218Z,21.96
2017-03-13T11:37:15.037Z,21.9
2017-03-13T11:38:25.322Z,21.92
2017-03-13T11:39:35.612Z,21.94
2017-03-13T11:40:45.894Z,21.9
2017-03-13T11:41:56.193Z,21.83
2017-03-13T11:43:07.028Z,21.96
2017-03-13T11:44:17.699Z,21.92
2017-03-13T11:45:27.985Z,21.86
2017-03-13T11:46:38.655Z,21.92
2017-03-13T11:47:48.542Z,21.92
2017-03-13T11:48:59.383Z,21.91
2017-03-13T11:50:10.087Z,21.86
2017-03-13T11:51:20.427Z,21.86
2017-03-13T11:52:30.703Z,21.84
2017-03-13T11:53:41.403Z,21.84
2017-03-13T11:54:51.460Z,21.9
2017-03-13T11:56:01.775Z,21.77
2017-03-13T11:57:11.688Z,21.86
2017-03-13T11:58:22.020Z,21.86
2017-03-13T11:59:31.534Z,21.9
2017-03-13T12:00:41.867Z,21.74
2017-03-13T12:01:52.228Z,21.75
2017-03-13T12:03:02.578Z,21.9
2017-03-13T12:04:12.873Z,21.77
2017-03-13T12:05:22.808Z,21.91
2017-03-13T12:06:33.597Z,21.77
2017-03-13T12:07:43.902Z,21.8
2017-03-13T12:08:54.207Z,21.92
2017-03-13T12:10:04.105Z,21.79
2017-03-13T12:11:14.813Z,21.9
2017-03-13T12:12:25.603Z,21.82
2017-03-13T12:13:35.896Z,21.83
2017-03-13T12:14:46.583Z,21.88
2017-03-13T12:15:56.860Z,21.86
2017-03-13T12:17:07.542Z,21.82
2017-03-13T12:18:17.910Z,21.86
2017-03-13T12:19:28.570Z,21.8
2017-03-13T12:20:39.249Z,21.82
2017-03-13T12:21:49.170Z,21.74
2017-03-13T12:22:59.091Z,21.84
2017-03-13T12:24:08.692Z,21.72
2017-03-13T12:25:18.958Z,21.84
2017-03-13T12:26:28.894Z,21.74
2017-03-13T12:27:38.810Z,21.72
2017-03-13T12:28:49.495Z,21.8
2017-03-13T12:30:00.296Z,21.84
2017-03-13T12:31:10.232Z,21.84
2017-03-13T12:32:20.544Z,21.79
2017-03-13T12:33:31.218Z,21.8
2017-03-13T12:34:40.747Z,21.79
2017-03-13T12:35:51.596Z,21.77
2017-03-13T12:37:01.487Z,21.74
2017-03-13T12:38:11.863Z,21.74
2017-03-13T12:39:22.153Z,21.74
2017-03-13T12:40:32.066Z,21.72
2017-03-13T12:41:42.517Z,21.82
2017-03-13T12:42:52.814Z,21.79
2017-03-13T12:44:03.094Z,21.83
2017-03-13T12:45:13.004Z,21.75
2017-03-13T12:46:22.921Z,21.72
2017-03-13T12:47:33.726Z,21.79
2017-03-13T12:48:44.447Z,21.74
2017-03-13T12:49:54.338Z,21.74
2017-03-13T12:51:04.236Z,21.84
